Clarkdale, Georgia
Current Conditions -  °F | °C
As of 4:12 PM on Sunday 23 Nov 2014 (Local Time) from KFTY Reporting Station
Thunderstorm Thunderstorm  
Wind Chill: 53°   Ceiling: 700
Heat Index: 53°   Visibility: 2.5mi
Dew Point: 50°   Wind: 14mph
Humidity: 89%   Direction: 90°E
Pressure: 29.68"   Gusts: NA
Location:  33.83°N, 84.65°W
Report Text: KFTY 232112Z 09012KT 2 1/2SM +TSRA BR BKN007 OVC032 12/10 A2968 RMK AO2 P0010 T01170100
Loading
Personal Weather Stations






























Interactive Weather Map New forecast layout! Learn more

10-Day Weather Forecast

Advertisements
Track Severe Weather on mobile